Time;durP1;ratioP1;P1;durP2;ratioP2;P2;SDS_P1;SDS_P2;PMS_P1;PMS_P2;Temp;Humidity;BMP_temperature;BMP_pressure;BME280_temperature;BME280_humidity;BME280_pressure;Samples;Min_cycle;Max_cycle;Signal;HPM_P1;HPM_P2
2023/04/04 00:01:21;;;;;;;23.33;9.75;;;;;;;8.69;86.53;93780.97;5055838;28;20040;-77
2023/04/04 00:03:50;;;;;;;20.17;9.30;;;;;;;8.63;86.94;93772.34;5054945;28;20032;-78
2023/04/04 00:06:19;;;;;;;23.52;9.93;;;;;;;8.97;86.79;93830.09;5073107;28;20031;-78
2023/04/04 00:08:44;;;;;;;25.83;11.27;;;;;;;8.37;86.49;93744.84;5055212;28;20036;-77
2023/04/04 00:11:10;;;;;;;32.05;12.73;;;;;;;8.87;85.87;93819.69;5072844;28;20028;-78
2023/04/04 00:13:37;;;;;;;44.20;13.65;;;;;;;8.34;87.07;93745.44;5072944;28;20032;-78
2023/04/04 00:16:02;;;;;;;36.90;11.95;;;;;;;8.77;87.01;93804.81;5054455;28;20056;-78
2023/04/04 00:18:27;;;;;;;34.55;12.10;;;;;;;8.23;86.37;93721.06;5073346;28;20485;-77
2023/04/04 00:20:53;;;;;;;40.20;12.55;;;;;;;8.65;86.74;93778.13;5072022;28;20115;-78
2023/04/04 00:23:18;;;;;;;45.33;14.60;;;;;;;9.07;86.94;93853.69;5054242;28;20369;-78
2023/04/04 00:25:50;;;;;;;57.80;15.98;;;;;;;8.64;86.51;93773.91;5054751;28;20039;-78
2023/04/04 00:28:15;;;;;;;;;;;;;;;9.07;87.31;93845.75;5073427;28;20032;-78
2023/04/04 00:30:41;;;;;;;49.17;13.68;;;;;;;8.77;86.41;93783.66;5088092;28;20382;-78
2023/04/04 00:33:06;;;;;;;47.45;13.95;;;;;;;9.10;86.33;93836.41;5072850;28;20036;-77
2023/04/04 00:35:32;;;;;;;46.03;13.30;;;;;;;8.80;86.43;93788.38;5072503;28;20063;-78
2023/04/04 00:37:57;;;;;;;45.50;13.23;;;;;;;8.69;86.77;93762.47;5072530;28;20040;-78
2023/04/04 00:40:23;;;;;;;41.17;12.65;;;;;;;9.15;86.73;93823.13;5072508;28;20411;-77
2023/04/04 00:42:48;;;;;;;47.38;12.43;;;;;;;8.92;86.56;93785.25;5054474;28;20082;-78
2023/04/04 00:45:14;;;;;;;40.05;13.35;;;;;;;8.98;86.18;93786.69;5054111;28;20044;-77
2023/04/04 00:47:42;;;;;;;39.50;12.50;;;;;;;9.19;85.80;93813.50;5072287;28;20032;-77
2023/04/04 00:50:08;;;;;;;36.88;12.07;;;;;;;8.68;86.01;93740.53;5071959;28;20037;-77
2023/04/04 00:52:33;;;;;;;34.35;12.05;;;;;;;8.81;85.98;93752.94;5072125;28;20498;-78
2023/04/04 00:54:59;;;;;;;21.80;10.13;;;;;;;8.80;85.51;93740.78;5054167;28;20035;-78
2023/04/04 00:57:27;;;;;;;22.05;8.88;;;;;;;8.74;85.99;93723.47;5054151;28;20042;-78
2023/04/04 00:59:53;;;;;;;23.83;9.38;;;;;;;8.90;86.74;93747.75;5053930;28;20419;-77
2023/04/04 01:02:18;;;;;;;21.10;8.73;;;;;;;8.71;86.03;93732.00;5072000;28;20040;-78
2023/04/04 01:04:43;;;;;;;18.70;8.40;;;;;;;8.64;86.46;93728.97;5053919;28;20037;-77
2023/04/04 01:07:10;;;;;;;21.48;8.93;;;;;;;9.08;86.64;93796.28;5088285;28;20539;-77
2023/04/04 01:09:35;;;;;;;21.38;9.10;;;;;;;8.68;86.47;93727.31;5073367;28;20047;-78
2023/04/04 01:12:01;;;;;;;19.35;8.38;;;;;;;9.19;86.91;93811.63;5091515;28;20606;-78
2023/04/04 01:14:27;;;;;;;21.88;8.73;;;;;;;9.23;85.79;93806.53;5073606;28;20104;-78
2023/04/04 01:16:53;;;;;;;19.80;8.80;;;;;;;8.61;86.17;93712.94;5074096;28;20617;-78
2023/04/04 01:19:27;;;;;;;31.30;12.30;;;;;;;9.24;86.42;93800.94;5091618;28;20032;-78
2023/04/04 01:21:54;;;;;;;37.13;12.30;;;;;;;8.86;86.54;93752.81;5091677;28;20044;-77
2023/04/04 01:24:22;;;;;;;33.60;11.20;;;;;;;8.87;86.09;93751.75;5091547;28;20028;-77
2023/04/04 01:26:49;;;;;;;29.52;11.07;;;;;;;8.88;85.95;93774.47;5074016;28;20110;-77
2023/04/04 01:29:15;;;;;;;31.50;12.25;;;;;;;9.24;86.16;93822.09;5093312;28;20038;-78
2023/04/04 01:31:59;;;;;;;59.13;12.35;;;;;;;9.09;86.19;93798.63;5091855;28;20478;-78
2023/04/04 01:34:49;;;;;;;38.25;11.25;;;;;;;9.17;86.13;93819.06;5092332;28;20059;-77
2023/04/04 01:37:31;;;;;;;23.40;8.77;;;;;;;9.10;87.24;93818.69;5094487;28;20097;-77
2023/04/04 01:40:15;;;;;;;17.05;7.78;;;;;;;8.17;87.63;93679.97;5094620;28;20494;-77
2023/04/04 01:42:43;;;;;;;10.02;5.97;;;;;;;8.99;87.51;93806.78;5094560;28;20035;-77
2023/04/04 01:45:09;;;;;;;7.53;5.15;;;;;;;8.68;87.46;93756.38;5093991;28;20043;-77
2023/04/04 01:47:42;;;;;;;7.00;5.07;;;;;;;8.70;87.48;93766.66;5092605;28;20040;-77
2023/04/04 01:50:09;;;;;;;7.78;5.57;;;;;;;8.48;88.86;93714.50;5093821;28;20478;-77
2023/04/04 01:52:35;;;;;;;8.10;5.85;;;;;;;8.69;88.34;93742.09;5092068;28;20039;-76
2023/04/04 01:55:02;;;;;;;7.43;5.13;;;;;;;8.72;88.46;93733.56;5092971;28;20036;-77
2023/04/04 01:57:28;;;;;;;8.93;5.43;;;;;;;9.04;89.05;93785.50;5092027;28;20046;-77
2023/04/04 01:59:53;;;;;;;5.75;5.00;;;;;;;9.06;88.43;93775.41;5091825;28;20119;-76
2023/04/04 02:02:19;;;;;;;6.97;4.90;;;;;;;8.63;87.42;93713.41;5091482;28;20051;-76
2023/04/04 02:04:44;;;;;;;7.15;4.80;;;;;;;8.84;87.23;93765.56;5092057;28;20398;-76
2023/04/04 02:07:10;;;;;;;5.00;4.35;;;;;;;8.89;87.19;93777.91;5091200;28;20100;-76
2023/04/04 02:09:35;;;;;;;7.72;4.15;;;;;;;8.31;87.27;93704.56;5090935;28;20039;-76
2023/04/04 02:12:01;;;;;;;5.55;4.13;;;;;;;8.79;87.25;93760.38;5091623;28;20043;-76
2023/04/04 02:14:26;;;;;;;7.25;4.75;;;;;;;8.46;88.08;93722.75;5092265;28;20056;-76
2023/04/04 02:16:52;;;;;;;5.05;4.22;;;;;;;8.37;87.93;93686.75;5090677;28;20428;-76
2023/04/04 02:19:17;;;;;;;6.13;4.35;;;;;;;8.93;87.26;93776.22;5092456;28;20118;-76
2023/04/04 02:21:43;;;;;;;5.28;4.50;;;;;;;8.09;87.62;93644.47;5092110;28;20052;-76
2023/04/04 02:24:09;;;;;;;5.43;3.60;;;;;;;8.68;87.13;93726.53;5092390;28;20114;-76
2023/04/04 02:26:34;;;;;;;6.28;3.22;;;;;;;7.88;87.36;93610.84;5090550;28;20067;-76
2023/04/04 02:29:00;;;;;;;4.70;3.17;;;;;;;8.99;87.23;93766.34;5091021;28;20127;-76
2023/04/04 02:31:26;;;;;;;4.18;3.05;;;;;;;8.47;87.00;93705.78;5092569;28;20043;-76
2023/04/04 02:33:51;;;;;;;4.13;2.85;;;;;;;8.60;86.77;93714.03;5092313;28;20032;-76
2023/04/04 02:36:16;;;;;;;3.88;2.55;;;;;;;8.66;86.48;93712.81;5091011;28;20031;-76
2023/04/04 02:38:42;;;;;;;2.55;2.35;;;;;;;8.90;86.24;93748.53;5092326;28;20059;-76
2023/04/04 02:41:07;;;;;;;3.17;2.70;;;;;;;8.81;85.99;93746.88;5090546;28;20059;-76
2023/04/04 02:43:32;;;;;;;3.15;2.22;;;;;;;8.26;85.66;93683.47;5090507;28;20029;-76
2023/04/04 02:45:58;;;;;;;2.70;2.15;;;;;;;8.64;85.58;93755.41;5094974;28;20494;-76
2023/04/04 02:48:24;;;;;;;2.50;2.00;;;;;;;8.54;86.34;93731.06;5094241;28;20035;-76
2023/04/04 02:50:50;;;;;;;2.15;1.85;;;;;;;8.38;86.30;93702.31;5095637;28;20031;-76
2023/04/04 02:53:16;;;;;;;2.15;1.95;;;;;;;8.93;86.19;93772.78;5095968;28;20036;-76
2023/04/04 02:55:41;;;;;;;3.83;2.55;;;;;;;8.66;85.67;93741.91;5096325;28;20428;-76
2023/04/04 02:58:07;;;;;;;2.53;2.13;;;;;;;8.61;85.83;93726.16;5094819;28;20032;-76
2023/04/04 03:00:32;;;;;;;2.33;2.10;;;;;;;8.96;86.33;93782.78;5096303;28;20054;-76
2023/04/04 03:02:58;;;;;;;3.55;2.30;;;;;;;8.75;85.46;93734.84;5094433;28;20034;-76
2023/04/04 03:05:24;;;;;;;8.57;2.80;;;;;;;8.55;85.30;93719.38;5094273;28;20142;-76
2023/04/04 03:07:57;;;;;;;4.00;2.70;;;;;;;8.69;86.26;93762.47;5094840;28;20071;-76
2023/04/04 03:10:23;;;;;;;4.47;3.13;;;;;;;8.60;86.38;93729.88;5095919;28;20038;-76
2023/04/04 03:12:49;;;;;;;5.63;3.78;;;;;;;8.52;86.18;93715.50;5077077;28;20528;-76
2023/04/04 03:15:15;;;;;;;5.85;3.53;;;;;;;8.97;86.33;93773.78;5077100;28;20032;-76
2023/04/04 03:17:40;;;;;;;5.43;3.60;;;;;;;8.58;85.59;93711.66;5095472;28;20028;-76
2023/04/04 03:20:06;;;;;;;4.80;3.72;;;;;;;8.95;86.25;93778.56;5077017;28;20040;-77
2023/04/04 03:22:32;;;;;;;5.82;4.13;;;;;;;8.90;86.48;93766.25;5094994;28;20059;-76
2023/04/04 03:24:57;;;;;;;11.18;4.80;;;;;;;8.89;86.37;93760.19;5095039;28;20063;-76
2023/04/04 03:27:23;;;;;;;10.45;6.20;;;;;;;9.08;86.29;93785.72;5076767;28;20422;-76
2023/04/04 03:29:48;;;;;;;16.65;8.13;;;;;;;8.82;86.65;93746.56;5095443;28;20110;-76
2023/04/04 03:32:14;;;;;;;15.95;9.85;;;;;;;9.13;87.05;93783.72;5077230;28;20040;-77
2023/04/04 03:34:39;;;;;;;15.15;8.60;;;;;;;9.14;86.78;93780.00;5094844;28;20082;-76
2023/04/04 03:37:05;;;;;;;12.52;8.32;;;;;;;8.64;86.85;93693.84;5076985;28;20043;-76
2023/04/04 03:39:30;;;;;;;14.13;8.05;;;;;;;8.80;86.88;93727.59;5076464;28;20032;-76
2023/04/04 03:41:57;;;;;;;15.93;8.38;;;;;;;9.07;86.17;93763.78;5094025;28;20086;-76
2023/04/04 03:44:22;;;;;;;13.82;8.73;;;;;;;8.83;86.08;93734.16;5094936;28;20439;-76
2023/04/04 03:46:48;;;;;;;13.57;8.30;;;;;;;8.66;85.97;93715.47;5092595;28;20039;-76
2023/04/04 03:49:13;;;;;;;13.65;9.18;;;;;;;8.70;86.90;93735.72;5093789;28;20035;-76
2023/04/04 03:51:38;;;;;;;15.50;9.15;;;;;;;8.97;86.69;93758.69;5093909;28;20123;-76
2023/04/04 03:54:04;;;;;;;18.05;10.27;;;;;;;9.14;86.60;93785.31;5095204;28;20028;-76
2023/04/04 03:56:31;;;;;;;13.95;8.88;;;;;;;9.14;86.90;93782.66;5093776;28;20032;-76
2023/04/04 03:58:57;;;;;;;10.60;8.60;;;;;;;8.75;86.24;93722.41;5094707;28;20032;-76
2023/04/04 04:01:22;;;;;;;12.02;9.35;;;;;;;8.82;86.66;93722.78;5076360;28;20098;-76
2023/04/04 04:03:48;;;;;;;13.43;8.57;;;;;;;9.21;86.48;93784.88;5093072;28;20036;-76
2023/04/04 04:06:13;;;;;;;12.85;8.60;;;;;;;8.90;86.57;93739.81;5089601;28;20032;-77
2023/04/04 04:08:39;;;;;;;13.15;9.77;;;;;;;9.24;87.00;93782.41;5083397;28;20065;-77
2023/04/04 04:11:05;;;;;;;14.13;9.48;;;;;;;9.29;86.81;93786.81;5080607;28;20096;-76
2023/04/04 04:13:31;;;;;;;25.48;12.23;;;;;;;9.29;87.64;93778.88;5090613;28;20417;-76
2023/04/04 04:15:56;;;;;;;16.67;11.15;;;;;;;8.98;87.32;93725.88;5091172;28;20035;-77
2023/04/04 04:18:22;;;;;;;24.98;11.38;;;;;;;9.29;87.40;93779.66;5076380;28;20126;-76
2023/04/04 04:20:47;;;;;;;25.38;12.23;;;;;;;9.19;87.78;93758.72;5078405;28;20866;-77
2023/04/04 04:23:12;;;;;;;21.23;11.63;;;;;;;8.44;87.72;93652.78;5088798;28;20046;-76
2023/04/04 04:25:38;;;;;;;17.30;12.75;;;;;;;9.22;87.66;93789.09;5080431;28;20024;-77
2023/04/04 04:28:03;;;;;;;20.02;11.02;;;;;;;9.15;87.56;93776.28;5091223;28;20143;-77
2023/04/04 04:30:29;;;;;;;17.75;10.90;;;;;;;8.52;87.15;93678.50;5075722;28;20626;-77
2023/04/04 04:32:55;;;;;;;14.95;10.90;;;;;;;9.27;87.29;93797.69;5096029;28;20406;-76
2023/04/04 04:35:20;;;;;;;16.50;10.80;;;;;;;8.83;87.05;93734.16;5086940;28;20111;-77
2023/04/04 04:37:46;;;;;;;15.10;10.88;;;;;;;9.35;87.11;93806.78;5087256;28;20513;-77
2023/04/04 04:40:13;;;;;;;13.07;10.00;;;;;;;8.78;86.49;93739.53;5087300;28;20028;-76
2023/04/04 04:42:44;;;;;;;17.63;10.88;;;;;;;9.25;87.67;93810.44;5087613;28;20031;-76
2023/04/04 04:45:10;;;;;;;12.68;9.15;;;;;;;8.92;86.91;93772.03;5086718;28;20031;-77
2023/04/04 04:47:36;;;;;;;12.45;9.25;;;;;;;9.29;86.56;93815.94;5079921;28;20042;-76
2023/04/04 04:50:01;;;;;;;16.58;9.85;;;;;;;9.23;86.61;93791.44;5084647;28;20023;-77
2023/04/04 04:52:28;;;;;;;16.08;9.27;;;;;;;8.92;86.65;93742.94;5087414;28;20136;-79
2023/04/04 04:54:54;;;;;;;17.15;10.25;;;;;;;8.94;86.84;93766.41;5088280;28;20016;-77
2023/04/04 04:57:20;;;;;;;16.63;9.43;;;;;;;9.38;86.49;93819.44;5079787;28;20019;-77
2023/04/04 04:59:45;;;;;;;16.63;8.65;;;;;;;9.31;85.96;93826.22;5111618;27;20497;-78
2023/04/04 05:02:11;;;;;;;13.20;6.80;;;;;;;8.95;86.47;93781.22;5090630;28;20036;-77
2023/04/04 05:04:36;;;;;;;10.77;6.75;;;;;;;8.36;86.02;93757.28;5094310;28;20054;-78
2023/04/04 05:07:02;;;;;;;11.25;6.72;;;;;;;8.86;87.60;93844.56;5080093;28;20027;-77
2023/04/04 05:09:27;;;;;;;17.70;7.30;;;;;;;8.34;87.51;93770.00;5073510;28;20059;-79
2023/04/04 05:11:53;;;;;;;10.68;7.85;;;;;;;8.04;89.14;93752.03;5070066;28;20115;-79
2023/04/04 05:14:19;;;;;;;14.85;8.05;;;;;;;8.28;88.67;93836.38;5070410;28;20032;-79
2023/04/04 05:16:44;;;;;;;15.80;8.93;;;;;;;7.26;90.68;93663.13;5093777;28;20971;-80
2023/04/04 05:19:09;;;;;;;18.85;10.40;;;;;;;7.85;89.41;93724.94;5079446;28;20035;-82
2023/04/04 05:21:35;;;;;;;19.02;11.15;;;;;;;8.70;88.87;93833.50;5060529;28;20086;-80
2023/04/04 05:24:01;;;;;;;18.85;11.80;;;;;;;8.13;87.51;93737.88;5064554;28;20489;-78
2023/04/04 05:26:28;;;;;;;19.17;12.55;;;;;;;8.68;87.50;93830.41;5068181;28;20126;-78
2023/04/04 05:28:54;;;;;;;19.35;12.68;;;;;;;7.81;86.77;93734.50;5051262;28;20666;-79
2023/04/04 05:31:20;;;;;;;20.42;13.15;;;;;;;8.27;88.38;93840.88;5045396;28;20048;-80
2023/04/04 05:33:45;;;;;;;22.73;13.70;;;;;;;7.88;88.50;93795.59;5034321;28;20036;-78
2023/04/04 05:36:11;;;;;;;18.35;12.32;;;;;;;7.96;88.60;93781.75;5056604;28;20107;-80
2023/04/04 05:38:39;;;;;;;18.90;13.57;;;;;;;8.01;88.13;93758.69;5061776;28;20043;-80
2023/04/04 05:41:05;;;;;;;24.70;14.48;;;;;;;8.44;88.12;93843.00;5039928;28;20032;-79
2023/04/04 05:43:30;;;;;;;21.38;13.13;;;;;;;7.79;88.98;93771.72;5056552;28;20032;-79
2023/04/04 05:45:56;;;;;;;26.90;13.77;;;;;;;7.94;88.55;93775.97;5057644;28;20029;-79
2023/04/04 05:48:21;;;;;;;24.77;14.40;;;;;;;8.39;87.44;93835.16;5036693;28;20045;-78
2023/04/04 05:50:47;;;;;;;24.05;15.25;;;;;;;8.17;88.57;93854.25;5062190;28;20044;-80
2023/04/04 05:53:13;;;;;;;26.60;15.77;;;;;;;7.33;89.80;93755.84;5042211;28;20029;-78
2023/04/04 05:55:38;;;;;;;26.27;16.70;;;;;;;7.17;90.38;93736.09;5055578;28;20024;-79
2023/04/04 05:58:04;;;;;;;31.80;17.25;;;;;;;7.60;90.02;93792.91;5058765;28;20060;-78
2023/04/04 06:00:29;;;;;;;29.98;18.52;;;;;;;7.57;90.76;93753.88;5038141;28;20094;-80
2023/04/04 06:02:57;;;;;;;34.85;20.20;;;;;;;8.28;91.29;93831.88;5050903;28;20148;-79
2023/04/04 06:05:24;;;;;;;25.63;17.40;;;;;;;7.97;90.77;93792.03;5050224;28;20037;-77
2023/04/04 06:07:49;;;;;;;28.60;14.90;;;;;;;8.08;89.25;93790.78;5035012;28;20492;-77
2023/04/04 06:10:15;;;;;;;23.02;15.05;;;;;;;8.82;90.53;93880.63;5055895;28;20036;-80
2023/04/04 06:12:40;;;;;;;23.95;14.30;;;;;;;8.35;89.18;93805.13;5024027;28;20037;-79
2023/04/04 06:15:07;;;;;;;20.65;13.32;;;;;;;8.97;88.97;93875.03;5032834;28;20040;-78
2023/04/04 06:17:32;;;;;;;21.40;12.38;;;;;;;8.28;87.69;93741.31;5036130;28;20141;-79
2023/04/04 06:19:58;;;;;;;22.25;10.65;;;;;;;9.09;86.61;93879.81;5030415;28;20740;-78
2023/04/04 06:22:23;;;;;;;14.70;10.30;;;;;;;8.36;86.24;93796.91;5058476;28;20055;-81
2023/04/04 06:24:49;;;;;;;18.77;13.75;;;;;;;8.29;85.83;93812.31;5075899;27;20135;-78
2023/04/04 06:27:14;;;;;;;24.88;15.20;;;;;;;8.23;88.47;93786.31;5080508;27;20031;-79
2023/04/04 06:29:40;;;;;;;27.60;16.48;;;;;;;9.07;89.26;93889.94;5078330;28;20520;-78
2023/04/04 06:32:05;;;;;;;34.78;19.80;;;;;;;8.41;90.02;93796.00;5095166;27;20036;-79
2023/04/04 06:34:31;;;;;;;31.00;19.65;;;;;;;8.50;89.02;93831.25;5096568;27;20032;-80
2023/04/04 06:36:56;;;;;;;29.13;18.13;;;;;;;8.50;89.90;93834.69;5099960;27;20035;-79
2023/04/04 06:39:22;;;;;;;11.85;7.65;;;;;;;7.69;85.99;93829.97;5083064;27;20078;-80
2023/04/04 06:41:47;;;;;;;7.45;4.97;;;;;;;7.07;85.44;93821.38;5079179;27;20043;-79
2023/04/04 06:44:13;;;;;;;7.47;3.22;;;;;;;6.34;83.73;93803.25;5099780;27;21740;-80
2023/04/04 06:46:39;;;;;;;4.68;2.95;;;;;;;6.46;85.32;93850.28;5097268;27;20050;-79
2023/04/04 06:49:05;;;;;;;4.03;2.47;;;;;;;6.19;83.77;93877.91;5079989;27;20490;-79
2023/04/04 06:51:32;;;;;;;2.95;2.00;;;;;;;5.91;83.14;93872.63;5099026;27;20042;-81
2023/04/04 06:54:00;;;;;;;3.03;1.83;;;;;;;6.39;84.14;93958.59;5098770;27;20028;-81
2023/04/04 06:56:25;;;;;;;3.97;2.28;;;;;;;5.77;84.77;93880.34;5093598;27;20696;-79
2023/04/04 06:58:51;;;;;;;2.53;1.63;;;;;;;5.95;83.09;93979.69;5077070;28;20036;-78
2023/04/04 07:01:17;;;;;;;3.28;1.55;;;;;;;4.84;84.25;93852.25;5081704;27;20035;-80
2023/04/04 07:03:46;;;;;;;1.60;1.40;;;;;;;4.69;83.79;93846.28;5091250;27;20078;-82
2023/04/04 07:06:11;;;;;;;2.92;1.50;;;;;;;4.86;83.73;93905.31;5100062;27;20109;-80
2023/04/04 07:08:36;;;;;;;1.70;1.15;;;;;;;4.59;83.07;93900.38;5080042;28;20050;-79
2023/04/04 07:11:03;;;;;;;3.55;1.88;;;;;;;5.13;84.95;93943.56;5069939;27;20027;-79
2023/04/04 07:13:28;;;;;;;3.63;1.50;;;;;;;5.33;83.58;93996.84;5090303;27;20814;-82
2023/04/04 07:15:54;;;;;;;3.00;1.77;;;;;;;5.46;84.22;94023.59;5079002;27;20032;-80
2023/04/04 07:18:20;;;;;;;2.90;1.25;;;;;;;4.39;83.52;93889.94;5059569;28;20031;-77
2023/04/04 07:20:46;;;;;;;1.60;1.23;;;;;;;4.67;83.33;93933.19;5097570;27;21644;-78
2023/04/04 07:23:12;;;;;;;6.68;2.38;;;;;;;4.26;82.66;93899.16;5096320;27;20140;-77
2023/04/04 07:25:38;;;;;;;3.60;1.33;;;;;;;5.13;82.85;94051.31;5089909;27;20040;-79
2023/04/04 07:28:06;;;;;;;4.25;1.20;;;;;;;4.66;80.19;94041.91;5080356;27;20496;-79
2023/04/04 07:30:32;;;;;;;2.17;1.00;;;;;;;4.80;81.26;94058.72;5080220;27;20087;-78
2023/04/04 07:32:59;;;;;;;5.88;2.15;;;;;;;4.56;82.25;94032.22;5082709;27;20165;-79
2023/04/04 07:35:24;;;;;;;10.40;2.58;;;;;;;4.84;82.38;94067.66;5106352;27;20697;-80
2023/04/04 07:37:50;;;;;;;15.30;2.25;;;;;;;4.46;82.18;94008.59;5082480;27;20024;-79
2023/04/04 07:40:17;;;;;;;12.30;2.42;;;;;;;4.73;81.96;94020.66;5077395;28;20150;-79
2023/04/04 07:42:44;;;;;;;7.20;2.33;;;;;;;4.60;80.27;94021.97;5080582;28;20393;-79
2023/04/04 07:45:10;;;;;;;12.50;2.05;;;;;;;4.42;80.45;94049.56;5094985;27;20607;-78
2023/04/04 07:47:36;;;;;;;5.38;1.27;;;;;;;4.21;81.26;94013.81;5075824;28;20488;-79
2023/04/04 07:50:02;;;;;;;8.77;1.45;;;;;;;4.11;80.39;94014.63;5069443;28;20102;-79
2023/04/04 07:52:28;;;;;;;4.13;1.38;;;;;;;3.75;80.76;93978.88;5110979;27;20115;-82
2023/04/04 07:54:54;;;;;;;3.50;1.40;;;;;;;4.03;81.46;94011.72;5093889;27;20073;-81
2023/04/04 07:57:21;;;;;;;2.40;1.35;;;;;;;3.46;81.21;93949.72;5076685;27;20027;-79
2023/04/04 07:59:47;;;;;;;5.95;1.35;;;;;;;4.24;80.45;94065.81;5096112;27;20042;-78
2023/04/04 08:02:12;;;;;;;3.28;1.60;;;;;;;3.64;79.46;93996.44;5078240;27;20028;-79
2023/04/04 08:04:37;;;;;;;4.85;1.75;;;;;;;4.26;80.46;94100.44;5094563;27;20032;-79
2023/04/04 08:07:03;;;;;;;3.15;1.70;;;;;;;3.73;81.05;94012.47;5098563;27;20139;-79
2023/04/04 08:09:33;;;;;;;3.63;1.10;;;;;;;3.28;79.81;93977.19;5068824;28;20529;-80
2023/04/04 08:12:00;;;;;;;2.17;1.15;;;;;;;4.14;79.61;94108.56;5093464;27;20032;-80
2023/04/04 08:14:26;;;;;;;2.35;1.27;;;;;;;2.91;79.22;93926.75;5078049;27;20107;-81
2023/04/04 08:16:52;;;;;;;10.05;1.38;;;;;;;4.20;78.91;94125.88;5097870;27;20084;-80
2023/04/04 08:19:17;;;;;;;1.77;1.35;;;;;;;3.20;80.34;93946.28;5096293;27;20092;-78
2023/04/04 08:21:43;;;;;;;6.60;1.90;;;;;;;3.75;80.52;94047.84;5069689;28;20147;-78
2023/04/04 08:24:09;;;;;;;4.40;1.42;;;;;;;4.09;78.98;94102.50;5052107;28;20272;-79
2023/04/04 08:26:34;;;;;;;5.53;1.70;;;;;;;3.68;79.81;94042.06;5057313;28;20063;-78
2023/04/04 08:29:00;;;;;;;5.50;2.03;;;;;;;4.32;79.65;94130.13;5075025;28;20035;-79
2023/04/04 08:31:25;;;;;;;6.88;2.10;;;;;;;4.23;78.92;94132.44;5057073;28;20031;-79
2023/04/04 08:33:51;;;;;;;9.27;2.45;;;;;;;4.33;78.56;94140.34;5072587;28;20600;-79
2023/04/04 08:36:17;;;;;;;6.40;1.50;;;;;;;4.03;78.45;94124.53;5058593;28;20655;-78
2023/04/04 08:38:43;;;;;;;2.58;1.60;;;;;;;3.62;77.96;94090.28;5058291;28;20039;-79
2023/04/04 08:41:11;;;;;;;5.95;1.60;;;;;;;4.00;77.82;94146.81;5059437;28;20036;-79
2023/04/04 08:43:37;;;;;;;6.35;1.95;;;;;;;3.42;78.73;94041.22;5052709;28;20047;-83
2023/04/04 08:46:05;;;;;;;3.97;1.70;;;;;;;4.12;78.40;94155.25;5071103;28;20769;-79
2023/04/04 08:48:32;;;;;;;7.68;1.80;;;;;;;3.38;77.11;94042.75;5069851;28;20028;-81
2023/04/04 08:50:59;;;;;;;3.83;1.60;;;;;;;3.61;78.00;94103.66;5048578;28;20069;-81
2023/04/04 08:53:25;;;;;;;2.78;1.60;;;;;;;4.09;77.26;94152.38;5050680;28;20036;-80
2023/04/04 08:55:53;;;;;;;2.22;1.38;;;;;;;3.21;77.18;94068.34;5057350;28;20589;-80
2023/04/04 08:58:19;;;;;;;4.60;1.52;;;;;;;3.01;78.49;94042.03;5054830;28;20039;-80
2023/04/04 09:00:44;;;;;;;2.45;1.50;;;;;;;2.76;78.52;93986.91;5060001;28;20111;-79
2023/04/04 09:03:28;;;;;;;2.95;1.73;;;;;;;2.95;78.24;94035.22;5074507;28;20040;-80
2023/04/04 09:05:56;;;;;;;1.88;1.48;;;;;;;3.64;77.01;94159.00;5071593;28;20035;-78
2023/04/04 09:08:25;;;;;;;2.03;1.48;;;;;;;2.96;78.32;94045.44;5048992;28;20067;-79
2023/04/04 09:10:51;;;;;;;3.47;1.88;;;;;;;3.49;79.23;94122.22;5074022;28;20032;-80
2023/04/04 09:13:17;;;;;;;3.90;2.10;;;;;;;3.39;81.24;94086.25;5068801;28;20024;-79
2023/04/04 09:15:49;;;;;;;3.42;1.52;;;;;;;3.65;79.13;94205.16;5067322;28;21237;-79
2023/04/04 09:18:16;;;;;;;5.65;1.30;;;;;;;2.74;79.49;94062.31;5073520;28;20035;-80
2023/04/04 09:20:45;;;;;;;7.75;2.20;;;;;;;3.46;81.38;94162.03;5077727;28;20035;-79
2023/04/04 09:23:13;;;;;;;6.53;1.95;;;;;;;3.35;79.58;94155.19;5066922;28;20051;-79
2023/04/04 09:25:51;;;;;;;3.28;2.40;;;;;;;3.68;81.46;94193.34;5070023;28;20080;-78
2023/04/04 09:28:17;;;;;;;6.60;2.65;;;;;;;3.38;83.43;94120.59;5065093;28;20039;-79
2023/04/04 09:30:43;;;;;;;6.38;2.63;;;;;;;3.48;82.54;94125.88;5068102;28;20036;-79
2023/04/04 09:33:11;;;;;;;4.53;2.05;;;;;;;3.74;81.49;94194.94;5058613;28;20070;-76
2023/04/04 09:35:40;;;;;;;4.05;2.13;;;;;;;3.58;82.37;94188.06;5059542;28;20028;-77
2023/04/04 09:38:06;;;;;;;3.97;2.17;;;;;;;3.63;82.59;94209.06;5057368;28;20841;-76
2023/04/04 09:40:33;;;;;;;4.45;1.80;;;;;;;3.44;80.81;94187.69;5063809;28;20043;-78
2023/04/04 09:43:03;;;;;;;3.72;1.90;;;;;;;3.54;82.64;94202.72;5049982;28;20049;-76
2023/04/04 09:45:39;;;;;;;3.17;2.20;;;;;;;3.29;83.93;94172.69;5064182;28;20825;-77
2023/04/04 09:48:06;;;;;;;2.83;1.92;;;;;;;3.26;81.18;94183.69;5064752;28;20077;-76
2023/04/04 09:50:32;;;;;;;3.35;2.40;;;;;;;3.15;82.47;94181.22;5067486;28;20038;-77
2023/04/04 09:52:59;;;;;;;2.17;1.98;;;;;;;3.25;82.53;94197.03;5066910;28;20508;-77
2023/04/04 09:55:32;;;;;;;4.18;1.90;;;;;;;3.25;82.81;94212.75;5067143;28;20054;-77
2023/04/04 09:58:01;;;;;;;4.28;2.38;;;;;;;2.95;83.13;94153.84;5070807;28;20090;-79
2023/04/04 10:00:28;;;;;;;2.85;1.88;;;;;;;2.92;81.80;94143.88;5069045;28;20059;-77
2023/04/04 10:02:57;;;;;;;3.33;2.22;;;;;;;3.04;82.29;94148.94;5066252;28;20043;-79
2023/04/04 10:05:23;;;;;;;3.17;2.35;;;;;;;3.31;82.39;94183.69;5060273;28;20153;-78
2023/04/04 10:07:48;;;;;;;5.50;2.60;;;;;;;2.95;80.00;94121.63;5067580;28;20032;-79
2023/04/04 10:10:14;;;;;;;3.90;2.20;;;;;;;3.14;79.96;94163.91;5066281;28;20276;-79
2023/04/04 10:12:40;;;;;;;4.43;2.50;;;;;;;3.10;80.71;94174.13;5064956;28;20037;-78
2023/04/04 10:15:07;;;;;;;2.72;1.95;;;;;;;3.22;79.14;94179.16;5073823;28;20077;-84
2023/04/04 10:17:38;;;;;;;4.40;2.65;;;;;;;3.41;81.00;94222.31;5073176;28;20054;-79
2023/04/04 10:20:08;;;;;;;4.05;2.85;;;;;;;3.19;80.43;94177.06;5068234;28;20639;-79
2023/04/04 10:22:37;;;;;;;5.25;2.70;;;;;;;3.15;79.52;94150.56;5061573;28;20049;-83
2023/04/04 10:25:08;;;;;;;5.97;2.50;;;;;;;2.95;79.08;94129.50;5064216;28;20090;-82
2023/04/04 10:27:34;;;;;;;3.53;2.58;;;;;;;3.30;79.37;94179.50;5056582;28;20051;-81
2023/04/04 10:30:00;;;;;;;4.82;2.70;;;;;;;2.92;80.12;94116.88;5068873;28;20066;-78
2023/04/04 10:32:37;;;;;;;3.70;2.38;;;;;;;3.49;78.04;94245.44;5060524;28;20126;-77
2023/04/04 10:35:06;;;;;;;5.05;2.45;;;;;;;3.51;78.35;94250.41;5054445;28;20484;-75
2023/04/04 10:37:37;;;;;;;4.03;2.40;;;;;;;2.65;78.48;94149.16;5065549;28;20032;-75
2023/04/04 10:40:16;;;;;;;6.20;2.67;;;;;;;3.46;79.72;94244.09;5061660;28;20035;-75
2023/04/04 10:42:44;;;;;;;4.07;2.80;;;;;;;3.23;78.81;94207.75;5057880;28;20040;-76
2023/04/04 10:45:12;;;;;;;4.22;3.05;;;;;;;3.36;79.79;94238.75;5064567;28;20042;-76
2023/04/04 10:47:38;;;;;;;7.53;3.35;;;;;;;3.62;79.89;94273.03;5096229;27;20054;-78
2023/04/04 10:50:10;;;;;;;6.25;3.72;;;;;;;3.34;80.77;94217.28;5065147;28;20042;-76
2023/04/04 10:52:38;;;;;;;5.00;3.90;;;;;;;3.58;80.68;94214.28;5062626;28;20036;-76
2023/04/04 10:55:07;;;;;;;5.85;4.00;;;;;;;3.92;81.13;94265.34;5063687;28;20103;-76
2023/04/04 10:57:37;;;;;;;4.45;3.00;;;;;;;3.60;78.35;94230.53;5079242;28;20112;-76
2023/04/04 11:00:05;;;;;;;4.07;3.10;;;;;;;3.77;77.47;94275.75;5050696;28;20093;-76
2023/04/04 11:03:00;;;;;;;3.30;3.00;;;;;;;3.43;79.27;94222.84;5069416;28;20032;-77
2023/04/04 11:05:46;;;;;;;4.97;3.47;;;;;;;3.70;79.47;94256.81;5064509;28;20036;-76
2023/04/04 11:08:16;;;;;;;4.10;3.50;;;;;;;3.64;79.18;94274.38;5103537;27;20032;-76
2023/04/04 11:10:47;;;;;;;3.55;2.90;;;;;;;3.48;78.81;94251.69;5071699;28;20040;-76
2023/04/04 11:13:34;;;;;;;5.13;3.10;;;;;;;3.39;79.31;94232.25;5065338;28;20073;-78
2023/04/04 11:16:12;;;;;;;5.22;3.95;;;;;;;3.40;79.41;94234.63;5061604;28;20035;-77
2023/04/04 11:18:38;;;;;;;5.72;4.20;;;;;;;3.64;80.63;94287.47;5063426;28;20028;-77
2023/04/04 11:21:26;;;;;;;6.72;3.63;;;;;;;3.47;80.00;94257.97;5058912;28;20841;-81
2023/04/04 11:23:57;;;;;;;5.80;4.18;;;;;;;3.67;80.59;94275.69;5084200;27;20127;-77
2023/04/04 11:26:25;;;;;;;7.00;3.90;;;;;;;3.71;80.67;94279.38;5073549;27;20031;-77
2023/04/04 11:28:50;;;;;;;6.05;4.38;;;;;;;3.69;81.76;94278.84;5096170;27;20122;-77
2023/04/04 11:31:22;;;;;;;5.57;4.10;;;;;;;3.74;81.54;94281.50;5071435;27;20045;-77
2023/04/04 11:34:02;;;;;;;4.88;3.42;;;;;;;3.53;79.77;94300.75;5088783;27;20688;-77
2023/04/04 11:36:34;;;;;;;3.40;3.10;;;;;;;3.47;79.82;94287.59;5068900;27;20044;-76